CheckWX is a tool to help pilots better visualize weather data.  It is not intended as a substitute for an official pre-flight weather briefing.

09:15:48 UTC

LJPZ METAR
Portoroz Airport
Portoroz, Slovenia
Current

16 mins ago

LJPZ 250900Z 29006KT CAVOK 28/17 Q1017
Observed
Aug-25 @ 09:00 UTC
Wind
  • 290° at 6 KTS
Visibility
10,000+ meters
Flight Rules
VFR
Cloud Levels
  • Clear skies
Temperature
28°C / 82°F
Dewpoint
17°C / 63°F
Heat Index
28°C / 83°F
Humidity
51%
Altimeter
30.03" Hg
Pressure
1016.92 hPa
Previous

46 mins ago

LJPZ 250830Z 30007KT CAVOK 27/18 Q1017
Observed
Aug-25 @ 08:30 UTC
Wind
  • 300° at 7 KTS
Visibility
10,000+ meters
Flight Rules
VFR
Cloud Levels
  • Clear skies
Temperature
27°C / 81°F
Dewpoint
18°C / 64°F
Heat Index
28°C / 83°F
Humidity
58%
Altimeter
30.03" Hg
Pressure
1016.92 hPa
Previous

1 hour ago

LJPZ 250800Z 30005KT CAVOK 27/17 Q1017
Observed
Aug-25 @ 08:00 UTC
Wind
  • 300° at 5 KTS
Visibility
10,000+ meters
Flight Rules
VFR
Cloud Levels
  • Clear skies
Temperature
27°C / 81°F
Dewpoint
17°C / 63°F
Heat Index
28°C / 82°F
Humidity
54%
Altimeter
30.03" Hg
Pressure
1016.92 hPa